createdAt,value
2019-03-20T00:00:31.287Z,3.13
2019-03-20T00:05:31.294Z,3.19
2019-03-20T00:10:31.276Z,3.25
2019-03-20T00:15:31.292Z,3.38
2019-03-20T00:20:31.288Z,3.44
2019-03-20T00:25:31.313Z,3.44
2019-03-20T00:30:31.298Z,3.44
2019-03-20T00:35:31.311Z,3.44
2019-03-20T00:40:31.320Z,3.44
2019-03-20T00:45:31.318Z,3.5
2019-03-20T00:50:31.294Z,3.44
2019-03-20T00:55:31.322Z,3.38
2019-03-20T01:00:31.313Z,3.38
2019-03-20T01:05:31.361Z,3.19
2019-03-20T01:10:31.342Z,3.13
2019-03-20T01:15:31.323Z,3
2019-03-20T01:20:31.314Z,2.81
2019-03-20T01:25:31.341Z,2.69
2019-03-20T01:30:31.309Z,2.63
2019-03-20T01:35:31.336Z,2.56
2019-03-20T01:40:31.372Z,2.5
2019-03-20T01:45:31.350Z,2.38
2019-03-20T01:50:31.331Z,2.31
2019-03-20T01:55:31.332Z,2.25
2019-03-20T02:00:31.364Z,2.25
2019-03-20T02:05:36.053Z,2.19
2019-03-20T02:10:31.346Z,2.13
2019-03-20T02:15:38.483Z,2.13
2019-03-20T02:20:31.343Z,2
2019-03-20T02:25:32.458Z,2
2019-03-20T02:30:31.367Z,1.94
2019-03-20T02:35:31.364Z,1.94
2019-03-20T02:40:31.361Z,1.88
2019-03-20T02:45:31.377Z,1.75
2019-03-20T02:50:31.351Z,1.69
2019-03-20T02:55:31.355Z,1.63
2019-03-20T03:00:31.374Z,1.56
2019-03-20T03:05:31.367Z,1.44
2019-03-20T03:10:31.369Z,1.38
2019-03-20T03:15:31.374Z,1.31
2019-03-20T03:20:31.401Z,1.31
2019-03-20T03:25:31.385Z,1.19
2019-03-20T03:30:31.389Z,1.13
2019-03-20T03:35:31.375Z,1.06
2019-03-20T03:40:31.385Z,1.06
2019-03-20T03:45:31.406Z,1.06
2019-03-20T03:50:31.415Z,1
2019-03-20T03:55:31.418Z,0.94
2019-03-20T04:00:31.387Z,0.88
2019-03-20T04:05:31.410Z,0.88
2019-03-20T04:10:31.391Z,0.88
2019-03-20T04:15:31.412Z,0.88
2019-03-20T04:20:31.406Z,0.94
2019-03-20T04:25:31.401Z,0.94
2019-03-20T04:30:31.427Z,1
2019-03-20T04:35:31.389Z,0.94
2019-03-20T04:40:31.417Z,0.94
2019-03-20T04:45:31.403Z,0.81
2019-03-20T04:50:31.411Z,0.75
2019-03-20T04:55:31.413Z,0.75
2019-03-20T05:00:31.426Z,0.69
2019-03-20T05:05:31.410Z,0.69
2019-03-20T05:10:31.417Z,0.69
2019-03-20T05:15:31.417Z,0.69
2019-03-20T05:20:31.429Z,0.69
2019-03-20T05:25:31.413Z,0.75
2019-03-20T05:30:31.465Z,0.88
2019-03-20T05:35:31.415Z,1.31
2019-03-20T05:40:31.417Z,1.88
2019-03-20T05:45:31.451Z,2.38
2019-03-20T05:50:31.438Z,1.94
2019-03-20T05:55:31.463Z,1.63
2019-03-20T06:00:31.433Z,1.44
2019-03-20T06:05:31.437Z,1.5
2019-03-20T06:10:31.435Z,1.5
2019-03-20T06:15:31.455Z,1.56
2019-03-20T06:20:33.683Z,1.69
2019-03-20T06:25:31.439Z,1.94
2019-03-20T06:30:31.456Z,2.13
2019-03-20T06:35:31.454Z,2.31
2019-03-20T06:40:31.438Z,2.5
2019-03-20T06:45:31.459Z,5.19
2019-03-20T06:50:31.468Z,6.38
2019-03-20T06:55:31.470Z,6.88
2019-03-20T07:00:31.471Z,7.38
2019-03-20T07:05:31.525Z,7.44
2019-03-20T07:10:31.475Z,7.44
2019-03-20T07:15:31.510Z,7.88
2019-03-20T07:20:31.459Z,7.88
2019-03-20T07:25:31.479Z,8.06
2019-03-20T07:30:31.513Z,7.69
2019-03-20T07:35:31.478Z,7.63
2019-03-20T07:40:31.485Z,7.56
2019-03-20T07:45:31.486Z,7.31
2019-03-20T07:50:31.485Z,7.63
2019-03-20T07:55:31.494Z,7.69
2019-03-20T08:00:31.499Z,7.81
2019-03-20T08:05:31.479Z,8.25
2019-03-20T08:10:31.495Z,7.94
2019-03-20T08:15:31.508Z,8.06
2019-03-20T08:20:31.499Z,8.13
2019-03-20T08:25:31.530Z,8.69
2019-03-20T08:30:31.507Z,9.13
2019-03-20T08:35:31.509Z,9.31
2019-03-20T08:40:31.513Z,9.19
2019-03-20T08:45:31.536Z,9.38
2019-03-20T08:50:31.496Z,9.44
2019-03-20T08:55:31.517Z,9.94
2019-03-20T09:00:31.528Z,9.94
2019-03-20T09:05:31.517Z,10
2019-03-20T09:10:31.524Z,10
2019-03-20T09:15:31.563Z,10.25
2019-03-20T09:20:31.523Z,10.38
2019-03-20T09:25:31.522Z,10.13
2019-03-20T09:30:31.524Z,9.94
2019-03-20T09:35:31.524Z,10
2019-03-20T09:40:31.523Z,10.19
2019-03-20T09:45:31.544Z,10.56
2019-03-20T09:50:31.522Z,10.69
2019-03-20T09:55:31.540Z,10.81
2019-03-20T10:00:31.575Z,10.88
2019-03-20T10:05:31.558Z,11.19
2019-03-20T10:10:31.546Z,10.88
2019-03-20T10:15:31.626Z,11
2019-03-20T10:20:31.554Z,11.19
2019-03-20T10:25:31.552Z,11.44
2019-03-20T10:30:31.585Z,11.38
2019-03-20T10:35:31.556Z,11.25
2019-03-20T10:40:31.567Z,11.5
2019-03-20T10:45:31.601Z,11.75
2019-03-20T10:50:31.550Z,11.88
2019-03-20T10:55:31.559Z,12.13
2019-03-20T11:00:31.561Z,12.69
2019-03-20T11:05:31.599Z,12
2019-03-20T11:10:31.581Z,12.13
2019-03-20T11:15:31.581Z,12.06
2019-03-20T11:20:31.571Z,12.31
2019-03-20T11:25:31.583Z,12.5
2019-03-20T11:30:31.585Z,12.38
2019-03-20T11:35:31.600Z,12.69
2019-03-20T11:40:31.651Z,12.94
2019-03-20T11:45:31.637Z,12.63
2019-03-20T11:50:31.594Z,13.06
2019-03-20T11:55:31.597Z,13.06
2019-03-20T12:00:31.641Z,12.75
2019-03-20T12:05:31.598Z,12.63
2019-03-20T12:10:31.591Z,12.38
2019-03-20T12:15:31.658Z,12.25
2019-03-20T12:20:31.601Z,12.44
2019-03-20T12:25:31.629Z,12.31
2019-03-20T12:30:31.631Z,12.25
2019-03-20T12:35:31.611Z,11.88
2019-03-20T12:40:31.619Z,11.88
2019-03-20T12:45:31.617Z,11.63
2019-03-20T12:50:31.617Z,11.94
2019-03-20T12:55:31.615Z,12
2019-03-20T13:00:31.638Z,12
2019-03-20T13:05:31.627Z,12.19
2019-03-20T13:10:31.626Z,12.13
2019-03-20T13:15:33.474Z,12
2019-03-20T13:20:31.636Z,12.06
2019-03-20T13:25:31.637Z,11.88
2019-03-20T13:30:31.638Z,11.81
2019-03-20T13:35:31.622Z,11.88
2019-03-20T13:40:31.642Z,12
2019-03-20T13:45:31.655Z,12.06
2019-03-20T13:50:31.625Z,12.06
2019-03-20T13:55:31.646Z,11.94
2019-03-20T14:00:31.647Z,11.94
2019-03-20T14:05:31.688Z,11.94
2019-03-20T14:10:31.681Z,12.06
2019-03-20T14:15:31.658Z,12.06
2019-03-20T14:20:31.654Z,12
2019-03-20T14:25:31.662Z,11.94
2019-03-20T14:30:31.679Z,12
2019-03-20T14:35:31.654Z,12.13
2019-03-20T14:40:35.960Z,12.13
2019-03-20T14:45:31.668Z,12.06
2019-03-20T14:50:31.673Z,12
2019-03-20T14:55:31.668Z,12.06
2019-03-20T15:00:31.712Z,12
2019-03-20T15:05:31.672Z,11.88
2019-03-20T15:10:31.669Z,11.94
2019-03-20T15:15:31.686Z,11.88
2019-03-20T15:20:31.676Z,11.81
2019-03-20T15:25:31.689Z,11.88
2019-03-20T15:30:31.677Z,11.75
2019-03-20T15:35:31.694Z,11.75
2019-03-20T15:40:31.691Z,11.69
2019-03-20T15:45:31.714Z,11.69
2019-03-20T15:50:31.687Z,11.69
2019-03-20T15:55:31.703Z,11.69
2019-03-20T16:00:31.697Z,11.69
2019-03-20T16:05:31.816Z,11.56
2019-03-20T16:10:31.713Z,11.5
2019-03-20T16:15:31.704Z,11.44
2019-03-20T16:20:31.708Z,11.44
2019-03-20T16:25:31.715Z,11.38
2019-03-20T16:30:31.721Z,11.31
2019-03-20T16:35:31.716Z,11.31
2019-03-20T16:40:31.724Z,11.31
2019-03-20T16:45:31.715Z,11.25
2019-03-20T16:50:31.721Z,11.19
2019-03-20T16:55:31.736Z,11.13
2019-03-20T17:00:31.715Z,11.06
2019-03-20T17:05:31.734Z,10.94
2019-03-20T17:10:31.780Z,10.81
2019-03-20T17:15:31.741Z,10.75
2019-03-20T17:20:31.728Z,10.69
2019-03-20T17:25:31.742Z,10.5
2019-03-20T17:30:31.729Z,10.44
2019-03-20T17:35:31.737Z,10.38
2019-03-20T17:40:31.737Z,10.31
2019-03-20T17:45:31.762Z,10.13
2019-03-20T17:50:31.783Z,10
2019-03-20T17:55:31.760Z,10
2019-03-20T18:00:31.774Z,9.88
2019-03-20T18:05:31.742Z,9.75
2019-03-20T18:10:33.231Z,9.63
2019-03-20T18:15:31.797Z,9.56
2019-03-20T18:20:31.759Z,9.5
2019-03-20T18:25:31.758Z,9.44
2019-03-20T18:30:31.773Z,9.38
2019-03-20T18:35:31.770Z,9.31
2019-03-20T18:40:31.768Z,9.19
2019-03-20T18:45:31.800Z,9.06
2019-03-20T18:50:31.773Z,9
2019-03-20T18:55:31.768Z,8.94
2019-03-20T19:00:31.798Z,8.88
2019-03-20T19:05:31.817Z,8.75
2019-03-20T19:10:31.787Z,8.63
2019-03-20T19:15:31.792Z,8.69
2019-03-20T19:20:31.800Z,8.69
2019-03-20T19:25:31.814Z,8.63
2019-03-20T19:30:31.840Z,8.63
2019-03-20T19:35:31.802Z,8.56
2019-03-20T19:40:31.798Z,8.5
2019-03-20T19:45:31.795Z,8.44
2019-03-20T19:50:31.785Z,8.5
2019-03-20T19:55:31.801Z,8.5
2019-03-20T20:00:31.793Z,8.5
2019-03-20T20:05:31.800Z,8.38
2019-03-20T20:10:31.804Z,8.38
2019-03-20T20:15:31.845Z,8.31
2019-03-20T20:20:31.809Z,8.31
2019-03-20T20:25:31.802Z,8.31
2019-03-20T20:30:31.821Z,8.31
2019-03-20T20:35:31.825Z,8.25
2019-03-20T20:40:31.819Z,8.25
2019-03-20T20:45:31.814Z,8.25
2019-03-20T20:50:31.829Z,8.25
2019-03-20T20:55:31.825Z,8.25
2019-03-20T21:00:31.829Z,8.25
2019-03-20T21:05:31.823Z,8.25
2019-03-20T21:10:31.821Z,8.19
2019-03-20T21:15:31.825Z,8.19
2019-03-20T21:20:31.831Z,8.06
2019-03-20T21:25:31.827Z,7.88
2019-03-20T21:30:31.875Z,7.81
2019-03-20T21:35:31.845Z,7.75
2019-03-20T21:40:31.847Z,7.69
2019-03-20T21:45:31.868Z,7.56
2019-03-20T21:50:31.857Z,7.44
2019-03-20T21:55:31.842Z,7.38
2019-03-20T22:00:31.868Z,7.38
2019-03-20T22:05:31.859Z,7.38
2019-03-20T22:10:31.878Z,7.38
2019-03-20T22:15:31.863Z,7.44
2019-03-20T22:20:31.857Z,7.5
2019-03-20T22:25:31.856Z,7.56
2019-03-20T22:30:31.878Z,7.56
2019-03-20T22:35:31.872Z,7.56
2019-03-20T22:40:31.860Z,7.56
2019-03-20T22:45:31.879Z,7.56
2019-03-20T22:50:31.878Z,7.63
2019-03-20T22:55:31.865Z,7.63
2019-03-20T23:00:31.897Z,7.63
2019-03-20T23:05:31.886Z,7.63
2019-03-20T23:10:31.872Z,7.63
2019-03-20T23:15:31.891Z,7.63
2019-03-20T23:20:31.885Z,7.56
2019-03-20T23:25:31.876Z,7.56
2019-03-20T23:30:31.881Z,7.56
2019-03-20T23:35:31.883Z,7.56
2019-03-20T23:40:31.898Z,7.5
2019-03-20T23:45:31.939Z,7.5
2019-03-20T23:50:31.902Z,7.56
2019-03-20T23:55:31.906Z,7.5
